createdAt,value
2019-05-17T00:00:17.835Z,99.90
2019-05-17T00:02:46.833Z,99.90
2019-05-17T00:05:17.524Z,99.90
2019-05-17T00:07:47.491Z,99.90
2019-05-17T00:10:17.405Z,99.90
2019-05-17T00:12:47.201Z,99.90
2019-05-17T00:15:17.079Z,99.90
2019-05-17T00:17:46.953Z,99.90
2019-05-17T00:20:17.305Z,99.90
2019-05-17T00:22:47.189Z,99.90
2019-05-17T00:25:16.950Z,99.90
2019-05-17T00:27:48.460Z,99.90
2019-05-17T00:30:17.732Z,99.90
2019-05-17T00:32:47.571Z,99.90
2019-05-17T00:35:17.812Z,99.90
2019-05-17T00:37:46.646Z,99.90
2019-05-17T00:40:16.681Z,99.90
2019-05-17T00:42:46.678Z,99.90
2019-05-17T00:45:17.631Z,99.90
2019-05-17T00:47:46.754Z,99.90
2019-05-17T00:50:17.042Z,99.90
2019-05-17T00:52:47.574Z,99.90
2019-05-17T00:55:17.614Z,99.90
2019-05-17T00:57:47.535Z,99.90
2019-05-17T01:00:17.346Z,99.90
2019-05-17T01:02:46.772Z,99.90
2019-05-17T01:05:17.170Z,99.90
2019-05-17T01:07:47.046Z,99.90
2019-05-17T01:10:16.703Z,99.90
2019-05-17T01:12:45.312Z,99.90
2019-05-17T01:15:16.611Z,99.90
2019-05-17T01:17:47.153Z,99.90
2019-05-17T01:20:17.390Z,99.90
2019-05-17T01:22:47.515Z,99.90
2019-05-17T01:25:17.147Z,99.90
2019-05-17T01:27:47.526Z,99.90
2019-05-17T01:30:17.792Z,99.90
2019-05-17T01:32:47.096Z,99.90
2019-05-17T01:35:16.731Z,99.90
2019-05-17T01:37:47.528Z,99.90
2019-05-17T01:40:17.648Z,99.90
2019-05-17T01:42:46.870Z,99.90
2019-05-17T01:45:16.612Z,99.90
2019-05-17T01:47:47.479Z,99.90
2019-05-17T01:50:17.517Z,99.90
2019-05-17T01:52:46.309Z,99.90
2019-05-17T01:55:17.364Z,99.90
2019-05-17T01:57:47.643Z,99.90
2019-05-17T02:00:17.713Z,99.90
2019-05-17T02:02:48.056Z,99.90
2019-05-17T02:05:18.103Z,99.90
2019-05-17T02:07:46.814Z,99.90
2019-05-17T02:10:17.499Z,99.90
2019-05-17T02:12:49.011Z,99.90
2019-05-17T02:15:17.216Z,99.90
2019-05-17T02:17:46.831Z,99.90
2019-05-17T02:20:17.459Z,99.90
2019-05-17T02:22:47.400Z,99.90
2019-05-17T02:25:17.000Z,99.90
2019-05-17T02:27:45.655Z,99.90
2019-05-17T02:30:14.932Z,99.90
2019-05-17T02:32:44.874Z,99.90
2019-05-17T02:35:15.246Z,99.90
2019-05-17T02:37:44.282Z,99.90
2019-05-17T02:40:14.977Z,99.90
2019-05-17T02:42:44.030Z,99.90
2019-05-17T02:45:14.441Z,99.90
2019-05-17T02:47:44.062Z,99.90
2019-05-17T02:50:13.538Z,99.90
2019-05-17T02:52:43.713Z,99.90
2019-05-17T02:55:13.393Z,99.90
2019-05-17T02:57:43.309Z,99.90
2019-05-17T03:00:13.845Z,99.90
2019-05-17T03:02:43.874Z,99.90
2019-05-17T03:05:13.732Z,99.90
2019-05-17T03:07:43.822Z,99.90
2019-05-17T03:10:22.819Z,99.90
2019-05-17T03:12:44.490Z,99.90
2019-05-17T03:15:14.049Z,99.90
2019-05-17T03:17:43.760Z,99.90
2019-05-17T03:20:14.040Z,99.90
2019-05-17T03:22:43.880Z,99.90
2019-05-17T03:25:14.188Z,99.90
2019-05-17T03:27:43.628Z,99.90
2019-05-17T03:30:17.249Z,99.90
2019-05-17T03:32:47.776Z,99.90
2019-05-17T03:35:17.375Z,99.90
2019-05-17T03:37:45.932Z,99.90
2019-05-17T03:40:35.387Z,99.90
2019-05-17T03:42:45.611Z,99.90
2019-05-17T03:45:14.881Z,99.90
2019-05-17T03:47:44.381Z,99.90
2019-05-17T03:50:14.365Z,99.90
2019-05-17T03:52:44.369Z,99.90
2019-05-17T03:55:14.231Z,99.90
2019-05-17T03:57:44.146Z,99.90
2019-05-17T04:00:13.947Z,99.90
2019-05-17T04:02:44.263Z,99.90
2019-05-17T04:05:13.417Z,99.90
2019-05-17T04:07:43.652Z,99.90
2019-05-17T04:10:14.948Z,99.90
2019-05-17T04:12:44.054Z,99.90
2019-05-17T04:15:15.477Z,99.90
2019-05-17T04:17:44.570Z,99.90
2019-05-17T04:20:14.420Z,99.90
2019-05-17T04:22:44.256Z,99.90
2019-05-17T04:25:14.131Z,99.90
2019-05-17T04:27:44.066Z,99.90
2019-05-17T04:30:13.433Z,99.90
2019-05-17T04:32:44.059Z,99.90
2019-05-17T04:35:13.636Z,99.90
2019-05-17T04:37:44.680Z,99.90
2019-05-17T04:40:14.332Z,99.90
2019-05-17T04:42:44.039Z,99.90
2019-05-17T04:45:13.599Z,99.90
2019-05-17T04:47:44.498Z,99.90
2019-05-17T04:50:14.074Z,99.90
2019-05-17T04:52:43.479Z,99.90
2019-05-17T04:55:13.831Z,99.90
2019-05-17T04:57:43.824Z,99.90
2019-05-17T05:00:13.632Z,99.90
2019-05-17T05:02:43.986Z,99.90
2019-05-17T05:05:14.074Z,99.90
2019-05-17T05:07:43.593Z,99.90
2019-05-17T05:10:14.401Z,99.90
2019-05-17T05:12:44.003Z,99.90
2019-05-17T05:15:13.862Z,99.90
2019-05-17T05:17:43.110Z,99.90
2019-05-17T05:20:13.412Z,99.90
2019-05-17T05:22:42.763Z,99.90
2019-05-17T05:25:12.581Z,99.90
2019-05-17T05:27:42.840Z,99.90
2019-05-17T05:30:12.174Z,99.90
2019-05-17T05:32:42.650Z,99.90
2019-05-17T05:35:12.633Z,99.90
2019-05-17T05:37:42.306Z,99.90
2019-05-17T05:40:13.126Z,99.90
2019-05-17T05:42:42.877Z,99.90
2019-05-17T05:45:12.537Z,99.90
2019-05-17T05:47:42.723Z,99.90
2019-05-17T05:50:12.595Z,99.90
2019-05-17T05:52:42.373Z,99.90
2019-05-17T05:55:12.500Z,99.90
2019-05-17T05:57:41.927Z,99.90
2019-05-17T06:00:14.110Z,99.90
2019-05-17T06:02:42.936Z,99.90
2019-05-17T06:05:16.572Z,99.90
2019-05-17T06:07:42.846Z,99.90
2019-05-17T06:10:13.258Z,99.90
2019-05-17T06:12:43.459Z,99.90
2019-05-17T06:15:13.158Z,99.90
2019-05-17T06:17:43.001Z,99.90
2019-05-17T06:20:12.262Z,99.90
2019-05-17T06:22:42.937Z,99.90
2019-05-17T06:25:14.911Z,99.90
2019-05-17T06:27:41.760Z,99.90
2019-05-17T06:30:12.657Z,99.90
2019-05-17T06:32:43.364Z,99.90
2019-05-17T06:35:12.638Z,99.90
2019-05-17T06:37:42.372Z,99.90
2019-05-17T06:40:13.095Z,99.90
2019-05-17T06:42:45.199Z,99.90
2019-05-17T06:45:13.001Z,99.90
2019-05-17T06:47:42.699Z,99.90
2019-05-17T06:50:14.266Z,99.90
2019-05-17T06:52:43.506Z,99.90
2019-05-17T06:55:13.238Z,99.90
2019-05-17T06:57:43.366Z,99.90
2019-05-17T07:00:19.703Z,99.90
2019-05-17T07:02:43.930Z,99.90
2019-05-17T07:05:15.896Z,99.90
2019-05-17T07:07:44.330Z,99.90
2019-05-17T07:10:15.100Z,99.90
2019-05-17T07:12:55.086Z,99.90
2019-05-17T07:15:14.549Z,99.90
2019-05-17T07:17:43.296Z,99.90
2019-05-17T07:20:13.108Z,99.90
2019-05-17T07:22:41.556Z,99.90
2019-05-17T07:25:11.086Z,99.90
2019-05-17T07:27:45.445Z,99.90
2019-05-17T07:30:12.221Z,99.90
2019-05-17T07:32:40.967Z,99.90
2019-05-17T07:35:10.751Z,99.90
2019-05-17T07:37:40.302Z,99.90
2019-05-17T07:40:10.854Z,99.90
2019-05-17T07:42:40.136Z,99.90
2019-05-17T07:45:10.225Z,99.90
2019-05-17T07:47:40.559Z,99.90
2019-05-17T07:50:11.425Z,99.90
2019-05-17T07:52:40.263Z,99.90
2019-05-17T07:55:10.784Z,99.90
2019-05-17T07:57:40.981Z,99.90
2019-05-17T08:00:11.048Z,99.90
2019-05-17T08:02:40.397Z,99.90
2019-05-17T08:05:10.265Z,99.90
2019-05-17T08:07:40.531Z,99.90
2019-05-17T08:10:11.136Z,99.40
2019-05-17T08:12:41.031Z,99.90
2019-05-17T08:15:11.116Z,99.70
2019-05-17T08:17:40.283Z,99.30
2019-05-17T08:20:11.382Z,98.20
2019-05-17T08:22:40.284Z,97.80
2019-05-17T08:25:10.294Z,98.80
2019-05-17T08:27:40.535Z,98.60
2019-05-17T08:30:10.981Z,98.10
2019-05-17T08:32:40.166Z,97.90
2019-05-17T08:35:11.291Z,98.50
2019-05-17T08:37:42.271Z,98.00
2019-05-17T08:40:14.879Z,98.00
2019-05-17T08:42:41.462Z,97.20
2019-05-17T08:45:10.419Z,94.40
2019-05-17T08:47:39.773Z,94.50
2019-05-17T08:50:11.463Z,92.40
2019-05-17T08:52:40.466Z,91.80
2019-05-17T08:55:10.105Z,92.00
2019-05-17T08:57:40.022Z,91.90
2019-05-17T09:00:10.587Z,91.10
2019-05-17T09:02:40.799Z,89.60
2019-05-17T09:05:10.145Z,90.20
2019-05-17T09:07:40.123Z,88.70
2019-05-17T09:10:10.266Z,85.80
2019-05-17T09:12:40.954Z,85.20
2019-05-17T09:15:10.205Z,81.80
2019-05-17T09:17:39.676Z,82.20
2019-05-17T09:20:10.712Z,77.00
2019-05-17T09:22:39.926Z,75.10
2019-05-17T09:25:13.569Z,72.50
2019-05-17T09:27:39.922Z,69.60
2019-05-17T09:30:09.532Z,70.10
2019-05-17T09:32:40.413Z,72.10
2019-05-17T09:35:10.019Z,71.50
2019-05-17T09:37:41.368Z,68.20
2019-05-17T09:40:10.755Z,67.10
2019-05-17T09:42:41.105Z,64.50
2019-05-17T09:45:10.260Z,63.00
2019-05-17T09:47:39.808Z,64.20
2019-05-17T09:50:10.296Z,63.40
2019-05-17T09:52:40.575Z,61.70
2019-05-17T09:55:10.025Z,59.00
2019-05-17T09:57:40.915Z,59.30
2019-05-17T10:00:10.343Z,63.10
2019-05-17T10:02:40.169Z,61.10
2019-05-17T10:05:31.094Z,59.30
2019-05-17T10:08:00.003Z,55.70
2019-05-17T10:10:28.693Z,55.70
2019-05-17T10:12:57.229Z,56.40
2019-05-17T10:15:30.070Z,54.90
2019-05-17T10:18:00.591Z,54.70
2019-05-17T10:20:29.663Z,55.30
2019-05-17T10:22:59.643Z,55.60
2019-05-17T10:25:29.478Z,54.60
2019-05-17T10:28:00.386Z,52.70
2019-05-17T10:30:29.987Z,51.60
2019-05-17T10:32:59.978Z,53.50
2019-05-17T10:35:29.572Z,55.80
2019-05-17T10:37:59.659Z,54.30
2019-05-17T10:40:29.913Z,54.80
2019-05-17T10:43:00.753Z,55.40
2019-05-17T10:45:30.501Z,56.00
2019-05-17T10:48:00.788Z,53.60
2019-05-17T10:50:30.046Z,53.00
2019-05-17T10:53:00.488Z,51.20
2019-05-17T10:55:30.267Z,51.60
2019-05-17T10:58:00.505Z,49.20
2019-05-17T11:00:30.395Z,50.10
2019-05-17T11:03:00.507Z,50.50
2019-05-17T11:05:30.791Z,52.70
2019-05-17T11:08:00.006Z,51.90
2019-05-17T11:10:28.534Z,51.20
2019-05-17T11:12:57.054Z,50.00
2019-05-17T11:15:25.923Z,50.50
2019-05-17T11:17:54.366Z,52.20
2019-05-17T11:20:23.416Z,49.60
2019-05-17T11:22:51.928Z,50.00
2019-05-17T11:25:20.442Z,50.70
2019-05-17T11:27:48.898Z,50.10
2019-05-17T11:30:17.414Z,47.50
2019-05-17T11:32:46.437Z,47.30
2019-05-17T11:35:15.212Z,48.90
2019-05-17T11:37:43.918Z,49.70
2019-05-17T11:40:13.228Z,49.30
2019-05-17T11:42:41.652Z,48.40
2019-05-17T11:45:25.207Z,47.80
2019-05-17T11:47:40.968Z,48.20
2019-05-17T11:50:09.846Z,48.50
2019-05-17T11:52:38.673Z,49.10
2019-05-17T11:55:07.535Z,47.50
2019-05-17T11:57:36.244Z,46.90
2019-05-17T12:00:06.870Z,46.80
2019-05-17T12:02:35.624Z,44.60
2019-05-17T12:05:05.618Z,44.90
2019-05-17T12:07:34.556Z,44.70
2019-05-17T12:10:04.886Z,44.60
2019-05-17T12:12:33.799Z,45.50
2019-05-17T12:15:02.661Z,48.10
2019-05-17T12:17:31.116Z,44.50
2019-05-17T12:19:59.907Z,44.20
2019-05-17T12:22:28.393Z,43.10
2019-05-17T12:24:56.828Z,43.00
2019-05-17T12:27:25.570Z,44.10
2019-05-17T12:29:54.022Z,43.30
2019-05-17T12:32:22.771Z,43.90
2019-05-17T12:34:51.579Z,42.00
2019-05-17T12:37:20.375Z,41.10
2019-05-17T12:39:49.083Z,39.30
2019-05-17T12:42:17.612Z,39.20
2019-05-17T12:44:46.375Z,40.60
2019-05-17T12:47:15.388Z,39.80
2019-05-17T12:49:43.927Z,38.10
2019-05-17T12:52:12.362Z,38.90
2019-05-17T12:54:40.826Z,37.00
2019-05-17T12:57:09.575Z,36.90
2019-05-17T12:59:38.206Z,36.40
2019-05-17T13:02:06.654Z,37.30
2019-05-17T13:04:35.363Z,36.40
2019-05-17T13:07:04.159Z,38.60
2019-05-17T13:09:32.616Z,39.80
2019-05-17T13:12:01.108Z,40.30
2019-05-17T13:14:29.598Z,41.30
2019-05-17T13:16:58.033Z,42.60
2019-05-17T13:19:26.832Z,42.70
2019-05-17T13:21:55.638Z,39.90
2019-05-17T13:24:24.463Z,39.20
2019-05-17T13:26:53.253Z,38.60
2019-05-17T13:29:21.695Z,38.90
2019-05-17T13:31:50.435Z,39.70
2019-05-17T13:34:19.213Z,38.70
2019-05-17T13:36:48.044Z,38.20
2019-05-17T13:39:16.733Z,37.00
2019-05-17T13:41:45.179Z,37.30
2019-05-17T13:44:13.708Z,37.60
2019-05-17T13:46:42.433Z,37.90
2019-05-17T13:49:11.239Z,38.40
2019-05-17T13:51:39.923Z,38.50
2019-05-17T13:54:08.649Z,42.10
2019-05-17T13:56:37.530Z,43.00
2019-05-17T13:59:05.961Z,42.60
2019-05-17T14:01:34.421Z,42.10
2019-05-17T14:04:02.902Z,41.50
2019-05-17T14:06:31.712Z,41.70
2019-05-17T14:09:00.179Z,41.60
2019-05-17T14:11:28.682Z,40.90
2019-05-17T14:13:57.263Z,39.50
2019-05-17T14:16:25.728Z,38.40
2019-05-17T14:18:54.213Z,40.00
2019-05-17T14:21:22.666Z,40.00
2019-05-17T14:23:51.186Z,41.20
2019-05-17T14:26:19.976Z,40.50
2019-05-17T14:28:48.402Z,39.70
2019-05-17T14:31:17.175Z,40.40
2019-05-17T14:33:45.622Z,39.90
2019-05-17T14:36:14.372Z,40.80
2019-05-17T14:38:42.838Z,40.30
2019-05-17T14:41:11.740Z,41.50
2019-05-17T14:43:40.558Z,43.50
2019-05-17T14:46:09.014Z,43.90
2019-05-17T14:48:37.868Z,42.50
2019-05-17T14:51:06.772Z,41.10
2019-05-17T14:53:35.575Z,41.30
2019-05-17T14:56:04.087Z,40.70
2019-05-17T14:58:32.602Z,38.90
2019-05-17T15:01:01.054Z,40.10
2019-05-17T15:03:29.947Z,39.70
2019-05-17T15:05:58.382Z,38.60
2019-05-17T15:08:26.827Z,38.60
2019-05-17T15:10:55.644Z,37.80
2019-05-17T15:13:24.074Z,37.50
2019-05-17T15:15:52.559Z,37.70
2019-05-17T15:18:20.999Z,39.20
2019-05-17T15:20:49.829Z,39.00
2019-05-17T15:23:18.643Z,37.80
2019-05-17T15:25:47.423Z,38.40
2019-05-17T15:28:16.231Z,39.10
2019-05-17T15:30:44.674Z,38.60
2019-05-17T15:33:13.123Z,40.20
2019-05-17T15:35:41.648Z,42.30
2019-05-17T15:38:11.258Z,42.30
2019-05-17T15:40:40.371Z,43.30
2019-05-17T15:43:09.160Z,44.20
2019-05-17T15:45:37.947Z,45.10
2019-05-17T15:48:06.402Z,47.60
2019-05-17T15:50:34.912Z,49.30
2019-05-17T15:53:03.970Z,51.30
2019-05-17T15:55:32.403Z,52.90
2019-05-17T15:58:01.207Z,54.80
2019-05-17T16:00:29.857Z,55.70
2019-05-17T16:02:58.318Z,57.00
2019-05-17T16:05:26.810Z,58.00
2019-05-17T16:07:55.283Z,59.20
2019-05-17T16:10:24.023Z,60.30
2019-05-17T16:13:02.336Z,61.70
2019-05-17T16:15:22.954Z,63.10
2019-05-17T16:17:51.478Z,64.50
2019-05-17T16:20:20.020Z,65.70
2019-05-17T16:22:48.854Z,66.90
2019-05-17T16:25:19.294Z,68.20
2019-05-17T16:27:48.096Z,68.60
2019-05-17T16:30:17.295Z,70.40
2019-05-17T16:32:45.726Z,71.40
2019-05-17T16:35:14.240Z,73.20
2019-05-17T16:37:42.690Z,83.50
2019-05-17T16:40:11.671Z,90.20
2019-05-17T16:42:40.390Z,95.30
2019-05-17T16:45:09.293Z,99.90
2019-05-17T16:47:38.151Z,99.90
2019-05-17T16:50:09.316Z,99.90
2019-05-17T16:52:38.255Z,99.90
2019-05-17T16:55:07.054Z,99.90
2019-05-17T17:01:16.467Z,99.90
2019-05-17T17:03:45.227Z,99.90
2019-05-17T17:06:14.021Z,99.90
2019-05-17T17:08:42.871Z,99.90
2019-05-17T17:11:12.054Z,99.90
2019-05-17T17:13:40.459Z,99.90
2019-05-17T17:16:08.941Z,99.90
2019-05-17T17:18:37.474Z,99.90
2019-05-17T17:21:06.834Z,99.90
2019-05-17T17:23:35.534Z,99.90
2019-05-17T17:26:04.543Z,99.90
2019-05-17T17:28:33.249Z,99.90
2019-05-17T17:31:01.769Z,99.90
2019-05-17T17:33:30.167Z,99.90
2019-05-17T17:35:59.279Z,99.90
2019-05-17T17:38:27.696Z,99.90
2019-05-17T17:40:56.429Z,99.90
2019-05-17T17:43:24.857Z,99.90
2019-05-17T17:45:53.629Z,99.90
2019-05-17T17:48:22.042Z,99.90
2019-05-17T17:50:50.460Z,99.90
2019-05-17T17:53:18.859Z,99.90
2019-05-17T17:55:47.279Z,99.90
2019-05-17T17:58:16.004Z,99.90
2019-05-17T18:00:44.408Z,99.90
2019-05-17T18:03:12.812Z,99.90
2019-05-17T18:05:41.212Z,99.90
2019-05-17T18:08:09.807Z,99.90
2019-05-17T18:10:38.581Z,99.90
2019-05-17T18:13:07.269Z,99.90
2019-05-17T18:15:44.672Z,99.90
2019-05-17T18:18:14.056Z,99.90
2019-05-17T18:20:43.099Z,99.90
2019-05-17T18:23:12.105Z,99.90
2019-05-17T18:25:40.576Z,99.90
2019-05-17T18:28:09.423Z,99.90
2019-05-17T18:30:38.166Z,99.90
2019-05-17T18:33:07.141Z,99.90
2019-05-17T18:35:36.273Z,99.90
2019-05-17T18:38:05.442Z,99.90
2019-05-17T18:40:34.196Z,99.90
2019-05-17T18:43:02.609Z,99.90
2019-05-17T18:45:31.516Z,99.90
2019-05-17T18:48:00.152Z,99.90
2019-05-17T18:50:28.696Z,99.90
2019-05-17T18:52:57.209Z,99.90
2019-05-17T18:55:25.926Z,99.90
2019-05-17T18:57:54.826Z,99.90
2019-05-17T19:00:23.703Z,99.90
2019-05-17T19:02:52.431Z,99.90
2019-05-17T19:05:20.837Z,99.90
2019-05-17T19:07:49.522Z,99.90
2019-05-17T19:10:18.363Z,99.90
2019-05-17T19:12:46.768Z,99.90
2019-05-17T19:15:15.916Z,99.90
2019-05-17T19:17:44.354Z,99.90
2019-05-17T19:20:13.498Z,99.90
2019-05-17T19:22:42.219Z,99.90
2019-05-17T19:25:11.385Z,99.90
2019-05-17T19:27:39.857Z,99.90
2019-05-17T19:30:09.104Z,99.90
2019-05-17T19:32:37.506Z,99.90
2019-05-17T19:35:06.789Z,99.90
2019-05-17T19:37:35.599Z,99.90
2019-05-17T19:40:07.095Z,99.90
2019-05-17T19:42:35.825Z,99.90
2019-05-17T19:45:06.741Z,99.90
2019-05-17T19:47:35.156Z,99.90
2019-05-17T19:50:05.513Z,99.90
2019-05-17T19:52:33.924Z,99.90
2019-05-17T19:55:02.393Z,99.90
2019-05-17T19:57:30.871Z,99.90
2019-05-17T19:59:59.669Z,99.90
2019-05-17T20:02:28.106Z,99.90
2019-05-17T20:04:56.522Z,99.90
2019-05-17T20:07:25.014Z,99.90
2019-05-17T20:09:53.496Z,99.90
2019-05-17T20:12:22.256Z,99.90
2019-05-17T20:14:50.687Z,99.90
2019-05-17T20:17:19.183Z,99.90
2019-05-17T20:19:47.966Z,99.90
2019-05-17T20:22:16.643Z,99.90
2019-05-17T20:24:45.333Z,99.90
2019-05-17T20:27:13.766Z,99.90
2019-05-17T20:29:42.168Z,99.90
2019-05-17T20:32:10.581Z,99.90
2019-05-17T20:34:39.008Z,99.90
2019-05-17T20:37:07.405Z,99.90
2019-05-17T20:39:36.215Z,99.90
2019-05-17T20:42:05.010Z,99.90
2019-05-17T20:44:33.696Z,99.90
2019-05-17T20:47:02.175Z,99.90
2019-05-17T20:49:30.568Z,99.90
2019-05-17T20:51:59.080Z,99.90
2019-05-17T20:54:27.468Z,99.90
2019-05-17T20:56:55.875Z,99.90
2019-05-17T20:59:24.572Z,99.90
2019-05-17T21:01:53.260Z,99.90
2019-05-17T21:04:21.894Z,99.90
2019-05-17T21:06:50.293Z,99.90
2019-05-17T21:09:18.700Z,99.90
2019-05-17T21:11:47.120Z,99.90
2019-05-17T21:14:15.837Z,99.90
2019-05-17T21:16:44.419Z,99.90
2019-05-17T21:19:12.849Z,99.90
2019-05-17T21:21:41.245Z,99.90
2019-05-17T21:24:09.929Z,99.90
2019-05-17T21:26:38.391Z,99.90
2019-05-17T21:29:07.112Z,99.90
2019-05-17T21:31:35.513Z,99.90
2019-05-17T21:34:04.182Z,99.90
2019-05-17T21:36:32.593Z,99.90
2019-05-17T21:39:00.992Z,99.90
2019-05-17T21:41:29.417Z,99.90
2019-05-17T21:43:58.080Z,99.90
2019-05-17T21:46:27.292Z,99.90
2019-05-17T21:48:55.708Z,99.90
2019-05-17T21:51:24.179Z,99.90
2019-05-17T21:53:52.867Z,99.90
2019-05-17T21:56:21.276Z,99.90
2019-05-17T21:58:49.981Z,99.90
2019-05-17T22:01:22.100Z,99.90
2019-05-17T22:03:50.684Z,99.90
2019-05-17T22:06:19.961Z,99.90
2019-05-17T22:08:48.753Z,99.90
2019-05-17T22:11:17.462Z,99.90
2019-05-17T22:13:46.161Z,99.90
2019-05-17T22:16:19.525Z,99.90
2019-05-17T22:18:44.790Z,99.90
2019-05-17T22:21:13.328Z,99.90
2019-05-17T22:23:41.792Z,99.90
2019-05-17T22:26:10.230Z,99.90
2019-05-17T22:28:38.647Z,99.90
2019-05-17T22:31:07.063Z,99.90
2019-05-17T22:33:35.480Z,99.90
2019-05-17T22:36:03.897Z,99.90
2019-05-17T22:38:32.290Z,99.90
2019-05-17T22:41:01.236Z,99.90
2019-05-17T22:43:29.640Z,99.90
2019-05-17T22:45:58.325Z,99.90
2019-05-17T22:48:27.025Z,99.90
2019-05-17T22:50:55.728Z,99.90
2019-05-17T22:53:24.429Z,99.90
2019-05-17T22:55:52.830Z,99.90
2019-05-17T22:58:21.514Z,99.90
2019-05-17T23:00:50.246Z,99.90
2019-05-17T23:03:18.915Z,99.90
2019-05-17T23:05:47.352Z,99.90
2019-05-17T23:08:15.775Z,99.90
2019-05-17T23:10:44.496Z,99.90
2019-05-17T23:13:13.509Z,99.90
2019-05-17T23:16:01.033Z,99.90
2019-05-17T23:18:33.543Z,99.90
2019-05-17T23:21:02.632Z,99.90
2019-05-17T23:23:31.551Z,99.90
2019-05-17T23:26:00.261Z,99.90
2019-05-17T23:28:29.051Z,99.90
2019-05-17T23:30:57.755Z,99.90
2019-05-17T23:33:26.166Z,99.90
2019-05-17T23:35:54.592Z,99.90
2019-05-17T23:38:23.233Z,99.90
2019-05-17T23:40:51.936Z,99.90
2019-05-17T23:43:20.342Z,99.90
2019-05-17T23:45:49.027Z,99.90
2019-05-17T23:48:17.745Z,99.90
2019-05-17T23:50:46.425Z,99.90
2019-05-17T23:53:14.854Z,99.90
2019-05-17T23:55:43.256Z,99.90
2019-05-17T23:58:11.671Z,99.90
